createdAt,value
2018-10-07T00:01:46.400Z,18.67
2018-10-07T00:04:14.457Z,18.17
2018-10-07T00:06:42.656Z,18.40
2018-10-07T00:09:10.765Z,19.57
2018-10-07T00:11:38.908Z,19.47
2018-10-07T00:14:07.062Z,20.03
2018-10-07T00:16:35.190Z,17.63
2018-10-07T00:19:03.434Z,18.30
2018-10-07T00:21:31.577Z,16.60
2018-10-07T00:23:59.694Z,17.30
2018-10-07T00:26:27.756Z,18.50
2018-10-07T00:28:55.854Z,20.10
2018-10-07T00:31:24.093Z,19.40
2018-10-07T00:33:52.267Z,18.90
2018-10-07T00:36:20.452Z,22.00
2018-10-07T00:38:48.695Z,21.33
2018-10-07T00:41:16.777Z,19.77
2018-10-07T00:43:45.955Z,22.03
2018-10-07T00:46:14.006Z,22.17
2018-10-07T00:48:42.187Z,22.27
2018-10-07T00:51:10.381Z,22.67
2018-10-07T00:53:38.466Z,23.23
2018-10-07T00:56:06.658Z,22.47
2018-10-07T00:58:34.775Z,23.37
2018-10-07T01:01:02.969Z,23.63
2018-10-07T01:03:31.092Z,20.60
2018-10-07T01:05:59.186Z,22.03
2018-10-07T01:08:27.355Z,23.03
2018-10-07T01:10:55.453Z,18.27
2018-10-07T01:13:23.524Z,19.60
2018-10-07T01:15:51.609Z,21.13
2018-10-07T01:18:19.691Z,19.73
2018-10-07T01:20:47.928Z,19.53
2018-10-07T01:23:16.019Z,20.03
2018-10-07T01:25:44.137Z,18.63
2018-10-07T01:28:12.230Z,17.60
2018-10-07T01:30:40.347Z,17.93
2018-10-07T01:33:08.431Z,17.70
2018-10-07T01:35:36.477Z,18.20
2018-10-07T01:38:04.510Z,18.60
2018-10-07T01:40:32.628Z,16.80
2018-10-07T01:43:00.617Z,18.13
2018-10-07T01:45:28.699Z,17.00
2018-10-07T01:47:56.736Z,16.80
2018-10-07T01:50:24.819Z,16.20
2018-10-07T01:52:52.822Z,14.80
2018-10-07T01:55:21.109Z,17.20
2018-10-07T01:57:49.135Z,17.17
2018-10-07T02:00:17.212Z,17.37
2018-10-07T02:02:45.274Z,17.10
2018-10-07T02:05:13.323Z,23.70
2018-10-07T02:07:41.448Z,20.63
2018-10-07T02:10:09.505Z,18.97
2018-10-07T02:12:37.566Z,22.17
2018-10-07T02:15:05.684Z,22.43
2018-10-07T02:17:33.754Z,19.27
2018-10-07T02:20:01.882Z,18.73
2018-10-07T02:22:29.968Z,19.97
2018-10-07T02:24:57.992Z,17.80
2018-10-07T02:27:26.024Z,18.20
2018-10-07T02:29:54.077Z,17.73
2018-10-07T02:32:22.162Z,18.50
2018-10-07T02:34:50.214Z,17.47
2018-10-07T02:37:18.344Z,16.50
2018-10-07T02:39:46.410Z,16.27
2018-10-07T02:42:14.432Z,18.23
2018-10-07T02:44:42.512Z,18.33
2018-10-07T02:47:10.572Z,17.77
2018-10-07T02:49:38.641Z,18.70
2018-10-07T02:52:07.026Z,19.43
2018-10-07T02:54:35.125Z,21.33
2018-10-07T02:57:03.299Z,20.50
2018-10-07T02:59:31.440Z,18.53
2018-10-07T03:01:59.591Z,20.17
2018-10-07T03:04:27.673Z,20.47
2018-10-07T03:06:55.735Z,19.50
2018-10-07T03:09:23.879Z,18.43
2018-10-07T03:11:51.912Z,18.83
2018-10-07T03:14:19.948Z,20.07
2018-10-07T03:16:47.933Z,20.60
2018-10-07T03:19:15.880Z,16.60
2018-10-07T03:21:44.009Z,18.60
2018-10-07T03:24:12.117Z,18.30
2018-10-07T03:26:40.221Z,18.37
2018-10-07T03:29:08.309Z,17.40
2018-10-07T03:31:36.489Z,16.47
2018-10-07T03:34:04.677Z,15.13
2018-10-07T03:36:32.744Z,15.93
2018-10-07T03:39:00.861Z,15.87
2018-10-07T03:41:28.973Z,14.57
2018-10-07T03:43:57.066Z,14.23
2018-10-07T03:46:25.109Z,15.00
2018-10-07T03:48:53.171Z,14.30
2018-10-07T03:51:21.228Z,14.57
2018-10-07T03:53:49.309Z,15.03
2018-10-07T03:56:17.412Z,14.20
2018-10-07T03:58:45.437Z,14.97
2018-10-07T04:01:13.659Z,13.77
2018-10-07T04:03:41.996Z,14.20
2018-10-07T04:06:10.116Z,15.20
2018-10-07T04:08:38.239Z,16.30
2018-10-07T04:11:06.502Z,16.23
2018-10-07T04:13:34.560Z,16.40
2018-10-07T04:16:02.559Z,13.80
2018-10-07T04:18:30.660Z,14.47
2018-10-07T04:20:58.708Z,14.37
2018-10-07T04:23:26.814Z,13.57
2018-10-07T04:25:54.954Z,12.77
2018-10-07T04:28:23.007Z,13.67
2018-10-07T04:30:51.138Z,14.80
2018-10-07T04:33:19.216Z,13.77
2018-10-07T04:35:47.244Z,14.73
2018-10-07T04:38:15.289Z,14.60
2018-10-07T04:40:43.313Z,15.10
2018-10-07T04:43:11.353Z,15.10
2018-10-07T04:45:39.418Z,13.60
2018-10-07T04:48:07.605Z,14.00
2018-10-07T04:50:35.881Z,13.80
2018-10-07T04:53:04.121Z,13.23
2018-10-07T04:55:32.268Z,13.60
2018-10-07T04:58:00.363Z,13.23
2018-10-07T05:00:28.576Z,13.50
2018-10-07T05:02:56.652Z,12.70
2018-10-07T05:05:26.071Z,12.77
2018-10-07T05:07:54.278Z,12.67
2018-10-07T05:10:50.756Z,12.50
2018-10-07T05:13:20.776Z,12.30
2018-10-07T05:15:53.243Z,12.30
2018-10-07T05:18:21.404Z,12.20
2018-10-07T05:20:49.643Z,12.90
2018-10-07T05:23:18.880Z,11.67
2018-10-07T05:25:47.116Z,12.90
2018-10-07T05:28:15.536Z,13.07
2018-10-07T05:30:43.676Z,13.83
2018-10-07T05:33:11.892Z,13.47
2018-10-07T05:35:39.970Z,14.80
2018-10-07T05:38:08.044Z,14.20
2018-10-07T05:40:36.137Z,15.33
2018-10-07T05:43:04.268Z,15.35
2018-10-07T05:45:32.434Z,15.93
2018-10-07T05:48:00.461Z,15.80
2018-10-07T05:50:28.514Z,17.73
2018-10-07T05:52:56.582Z,17.47
2018-10-07T05:55:24.740Z,19.73
2018-10-07T05:57:58.591Z,16.00
2018-10-07T06:00:28.740Z,16.00
2018-10-07T06:03:22.652Z,15.53
2018-10-07T06:05:51.526Z,18.00
2018-10-07T06:08:20.518Z,16.17
2018-10-07T06:10:48.679Z,16.30
2018-10-07T06:13:16.797Z,15.50
2018-10-07T06:15:45.663Z,16.10
2018-10-07T06:18:14.058Z,16.20
2018-10-07T06:20:42.230Z,16.70
2018-10-07T06:23:10.357Z,18.13
2018-10-07T06:25:38.510Z,18.37
2018-10-07T06:28:06.644Z,17.10
2018-10-07T06:30:34.972Z,16.67
2018-10-07T06:33:03.034Z,17.87
2018-10-07T06:35:31.176Z,17.30
2018-10-07T06:37:59.327Z,17.70
2018-10-07T06:40:27.420Z,18.00
2018-10-07T06:42:55.566Z,17.47
2018-10-07T06:45:23.968Z,17.60
2018-10-07T06:47:52.217Z,17.80
2018-10-07T06:50:20.396Z,16.37
2018-10-07T06:52:48.544Z,18.07
2018-10-07T06:55:16.898Z,19.90
2018-10-07T06:57:45.272Z,19.90
2018-10-07T07:00:13.629Z,20.00
2018-10-07T07:02:41.927Z,18.47
2018-10-07T07:05:10.157Z,20.80
2018-10-07T07:07:38.292Z,22.37
2018-10-07T07:10:06.764Z,22.43
2018-10-07T07:12:35.089Z,20.97
2018-10-07T07:15:03.338Z,21.27
2018-10-07T07:17:31.565Z,21.60
2018-10-07T07:19:59.901Z,22.10
2018-10-07T07:22:28.227Z,23.40
2018-10-07T07:24:56.455Z,24.37
2018-10-07T07:27:24.604Z,23.60
2018-10-07T07:29:52.778Z,23.20
2018-10-07T07:32:26.119Z,24.40
2018-10-07T07:34:54.517Z,26.27
2018-10-07T07:37:22.725Z,24.13
2018-10-07T07:39:50.873Z,26.10
2018-10-07T07:42:19.146Z,25.57
2018-10-07T07:44:47.255Z,27.20
2018-10-07T07:47:16.247Z,27.43
2018-10-07T07:49:44.941Z,26.90
2018-10-07T07:52:13.243Z,29.50
2018-10-07T07:54:41.508Z,27.23
2018-10-07T07:59:56.923Z,26.77
2018-10-07T08:02:25.457Z,26.57
2018-10-07T08:04:53.750Z,26.73
2018-10-07T08:07:22.061Z,26.83
2018-10-07T08:09:50.221Z,28.00
2018-10-07T08:12:18.529Z,28.23
2018-10-07T08:14:46.762Z,27.47
2018-10-07T08:17:15.064Z,30.77
2018-10-07T08:19:43.281Z,29.10
2018-10-07T08:22:11.588Z,31.20
2018-10-07T08:24:39.797Z,30.73
2018-10-07T08:27:08.091Z,31.40
2018-10-07T08:29:36.352Z,31.77
2018-10-07T08:32:04.689Z,32.27
2018-10-07T08:34:32.913Z,29.23
2018-10-07T08:37:01.130Z,31.30
2018-10-07T08:39:29.333Z,31.80
2018-10-07T08:41:57.577Z,30.00
2018-10-07T08:44:26.503Z,30.63
2018-10-07T08:46:54.967Z,31.50
2018-10-07T08:49:23.287Z,30.63
2018-10-07T08:51:51.510Z,28.13
2018-10-07T08:54:19.771Z,30.37
2018-10-07T08:56:48.077Z,26.17
2018-10-07T08:59:16.275Z,30.83
2018-10-07T09:01:44.609Z,30.87
2018-10-07T09:04:13.094Z,31.53
2018-10-07T09:06:41.477Z,31.67
2018-10-07T09:09:10.451Z,31.63
2018-10-07T09:11:38.741Z,31.30
2018-10-07T09:14:07.057Z,29.70
2018-10-07T09:16:35.391Z,30.90
2018-10-07T09:19:03.853Z,32.00
2018-10-07T09:21:32.125Z,31.10
2018-10-07T09:24:00.403Z,33.70
2018-10-07T09:26:29.031Z,33.87
2018-10-07T09:28:57.342Z,29.30
2018-10-07T09:31:25.636Z,30.80
2018-10-07T09:33:53.919Z,30.73
2018-10-07T09:36:22.072Z,31.23
2018-10-07T09:38:50.270Z,30.63
2018-10-07T09:41:18.581Z,30.30
2018-10-07T09:43:47.103Z,29.47
2018-10-07T09:46:15.647Z,31.10
2018-10-07T09:48:44.192Z,28.93
2018-10-07T09:51:12.462Z,31.93
2018-10-07T09:53:40.899Z,35.43
2018-10-07T09:56:09.202Z,32.63
2018-10-07T09:58:38.977Z,29.70
2018-10-07T10:01:07.301Z,29.90
2018-10-07T10:03:35.914Z,31.87
2018-10-07T10:06:04.216Z,29.67
2018-10-07T10:08:32.926Z,30.27
2018-10-07T10:11:01.241Z,28.17
2018-10-07T10:13:29.667Z,26.63
2018-10-07T10:15:57.897Z,22.23
2018-10-07T10:18:46.183Z,23.90
2018-10-07T10:21:30.941Z,23.87
2018-10-07T10:24:36.680Z,23.30
2018-10-07T10:27:47.697Z,23.53
2018-10-07T10:30:30.442Z,22.70
2018-10-07T10:33:16.971Z,21.37
2018-10-07T10:38:04.424Z,25.97
2018-10-07T10:40:37.782Z,26.00
2018-10-07T10:43:21.859Z,28.20
2018-10-07T10:46:44.615Z,29.37
2018-10-07T10:49:36.649Z,28.27
2018-10-07T10:52:16.701Z,28.00
2018-10-07T10:55:00.100Z,26.33
2018-10-07T10:57:53.196Z,24.70
2018-10-07T11:00:27.081Z,23.37
2018-10-07T11:05:48.314Z,22.17
2018-10-07T11:08:42.969Z,18.80
2018-10-07T11:11:26.699Z,16.80
2018-10-07T11:14:05.161Z,17.67
2018-10-07T11:18:51.026Z,15.23
2018-10-07T11:23:39.510Z,14.90
2018-10-07T11:26:29.924Z,13.37
2018-10-07T11:29:10.238Z,10.93
2018-10-07T11:31:50.597Z,12.43
2018-10-07T11:36:43.282Z,11.93
2018-10-07T11:39:27.104Z,11.80
2018-10-07T11:42:20.142Z,11.10
2018-10-07T11:45:05.490Z,8.97
2018-10-07T11:47:56.515Z,9.27
2018-10-07T11:50:44.706Z,8.43
2018-10-07T11:53:45.607Z,8.90
2018-10-07T11:56:13.850Z,9.03
2018-10-07T11:58:42.182Z,11.87
2018-10-07T12:01:10.523Z,12.07
2018-10-07T12:03:38.719Z,11.30
2018-10-07T12:06:06.946Z,11.40
2018-10-07T12:08:35.336Z,11.57
2018-10-07T12:11:03.619Z,11.40
2018-10-07T12:13:32.442Z,10.27
2018-10-07T12:16:00.867Z,9.80
2018-10-07T12:18:29.129Z,10.90
2018-10-07T12:20:57.339Z,8.47
2018-10-07T12:23:25.547Z,8.20
2018-10-07T12:25:53.789Z,9.30
2018-10-07T12:28:21.935Z,9.40
2018-10-07T12:30:50.271Z,9.00
2018-10-07T12:33:18.512Z,6.67
2018-10-07T12:35:46.675Z,6.47
2018-10-07T12:38:14.938Z,6.90
2018-10-07T12:40:44.320Z,8.20
2018-10-07T12:43:12.587Z,7.20
2018-10-07T12:45:40.925Z,8.43
2018-10-07T12:48:09.030Z,7.30
2018-10-07T12:50:37.310Z,7.23
2018-10-07T12:53:05.681Z,8.37
2018-10-07T12:55:34.128Z,8.23
2018-10-07T12:58:02.378Z,7.90
2018-10-07T13:00:30.618Z,7.90
2018-10-07T13:02:58.793Z,8.03
2018-10-07T13:05:27.034Z,8.20
2018-10-07T13:07:55.222Z,8.10
2018-10-07T13:10:23.555Z,8.93
2018-10-07T13:12:52.435Z,9.73
2018-10-07T13:15:20.772Z,9.03
2018-10-07T13:17:49.195Z,8.80
2018-10-07T13:20:17.484Z,9.00
2018-10-07T13:22:45.902Z,10.67
2018-10-07T13:25:15.445Z,9.03
2018-10-07T13:27:43.754Z,10.13
2018-10-07T13:30:11.941Z,8.83
2018-10-07T13:32:40.407Z,9.77
2018-10-07T13:35:09.125Z,10.13
2018-10-07T13:37:37.494Z,11.20
2018-10-07T13:40:06.283Z,10.60
2018-10-07T13:42:34.593Z,10.60
2018-10-07T13:45:02.955Z,11.50
2018-10-07T13:47:31.077Z,9.33
2018-10-07T13:49:59.547Z,9.50
2018-10-07T13:52:27.812Z,9.50
2018-10-07T13:54:56.200Z,10.20
2018-10-07T13:57:25.418Z,9.37
2018-10-07T13:59:53.679Z,8.53
2018-10-07T14:02:21.960Z,9.40
2018-10-07T14:04:50.175Z,8.30
2018-10-07T14:07:18.270Z,10.00
2018-10-07T14:09:46.634Z,9.77
2018-10-07T14:12:14.806Z,9.77
2018-10-07T14:14:43.022Z,10.30
2018-10-07T14:17:11.288Z,9.37
2018-10-07T14:19:39.432Z,9.90
2018-10-07T14:22:07.596Z,8.90
2018-10-07T14:24:36.004Z,9.40
2018-10-07T14:27:04.368Z,9.00
2018-10-07T14:29:32.533Z,8.50
2018-10-07T14:32:00.714Z,8.47
2018-10-07T14:34:28.869Z,8.23
2018-10-07T14:36:57.061Z,7.60
2018-10-07T14:39:25.219Z,7.93
2018-10-07T14:41:53.423Z,8.33
2018-10-07T14:44:21.633Z,7.93
2018-10-07T14:46:50.006Z,8.13
2018-10-07T14:49:18.340Z,8.60
2018-10-07T14:51:46.813Z,7.60
2018-10-07T14:54:15.011Z,7.13
2018-10-07T14:56:43.161Z,7.80
2018-10-07T14:59:11.401Z,6.37
2018-10-07T15:01:39.830Z,6.33
2018-10-07T15:04:08.142Z,6.30
2018-10-07T15:06:36.540Z,5.73
2018-10-07T15:09:09.395Z,5.00
2018-10-07T15:11:37.688Z,5.67
2018-10-07T15:14:06.118Z,5.63
2018-10-07T15:16:34.616Z,5.10
2018-10-07T15:19:02.929Z,4.70
2018-10-07T15:21:31.433Z,4.20
2018-10-07T15:23:59.674Z,4.20
2018-10-07T15:26:27.928Z,4.40
2018-10-07T15:28:56.111Z,4.03
2018-10-07T15:31:24.369Z,3.43
2018-10-07T15:33:52.736Z,3.43
2018-10-07T15:36:21.078Z,3.60
2018-10-07T15:38:49.338Z,3.50
2018-10-07T15:41:18.069Z,3.23
2018-10-07T15:43:46.406Z,3.00
2018-10-07T15:46:14.650Z,3.40
2018-10-07T15:48:42.899Z,4.00
2018-10-07T15:51:11.201Z,3.50
2018-10-07T15:53:39.434Z,3.90
2018-10-07T15:56:07.800Z,3.70
2018-10-07T15:58:36.037Z,3.80
2018-10-07T16:01:04.588Z,2.70
2018-10-07T16:03:32.929Z,3.50
2018-10-07T16:06:01.225Z,3.17
2018-10-07T16:08:29.522Z,3.27
2018-10-07T16:10:57.693Z,3.70
2018-10-07T16:13:26.116Z,3.43
2018-10-07T16:15:54.340Z,4.20
2018-10-07T16:18:22.718Z,2.63
2018-10-07T16:20:51.094Z,3.47
2018-10-07T16:23:19.420Z,3.13
2018-10-07T16:25:47.792Z,3.60
2018-10-07T16:28:15.952Z,3.60
2018-10-07T16:30:44.384Z,3.60
2018-10-07T16:33:12.697Z,3.40
2018-10-07T16:35:41.075Z,3.50
2018-10-07T16:38:09.377Z,3.17
2018-10-07T16:40:37.612Z,2.60
2018-10-07T16:43:06.025Z,3.07
2018-10-07T16:45:34.345Z,3.00
2018-10-07T16:48:02.671Z,3.10
2018-10-07T16:50:31.080Z,2.90
2018-10-07T16:52:59.558Z,3.07
2018-10-07T16:55:27.860Z,2.93
2018-10-07T16:57:56.262Z,2.90
2018-10-07T17:00:24.584Z,3.17
2018-10-07T17:02:52.979Z,2.80
2018-10-07T17:05:22.252Z,2.67
2018-10-07T17:07:50.539Z,2.67
2018-10-07T17:10:18.823Z,3.13
2018-10-07T17:12:47.040Z,2.80
2018-10-07T17:15:15.392Z,3.00
2018-10-07T17:17:43.728Z,3.00
2018-10-07T17:20:11.991Z,2.70
2018-10-07T17:22:40.607Z,2.80
2018-10-07T17:25:08.901Z,3.00
2018-10-07T17:27:37.279Z,2.83
2018-10-07T17:30:05.758Z,2.90
2018-10-07T17:32:34.446Z,3.00
2018-10-07T17:35:02.753Z,2.47
2018-10-07T17:37:31.071Z,2.30
2018-10-07T17:39:59.392Z,2.70
2018-10-07T17:42:27.689Z,2.67
2018-10-07T17:44:55.940Z,2.80
2018-10-07T17:47:24.242Z,2.60
2018-10-07T17:49:52.603Z,2.60
2018-10-07T17:52:21.007Z,2.50
2018-10-07T17:54:49.399Z,3.03
2018-10-07T17:57:17.634Z,3.10
2018-10-07T17:59:46.002Z,3.00
2018-10-07T18:02:14.343Z,3.20
2018-10-07T18:04:42.865Z,2.97
2018-10-07T18:07:11.233Z,3.30
2018-10-07T18:09:39.636Z,3.40
2018-10-07T18:12:07.940Z,3.27
2018-10-07T18:14:36.265Z,3.20
2018-10-07T18:17:04.586Z,3.87
2018-10-07T18:19:32.971Z,3.57
2018-10-07T18:22:01.345Z,3.30
2018-10-07T18:24:29.677Z,4.10
2018-10-07T18:26:57.918Z,4.90
2018-10-07T18:29:26.369Z,3.97
2018-10-07T18:31:54.743Z,4.70
2018-10-07T18:34:23.288Z,4.13
2018-10-07T18:36:51.507Z,4.50
2018-10-07T18:39:19.950Z,5.00
2018-10-07T18:41:48.572Z,4.70
2018-10-07T18:44:16.869Z,5.60
2018-10-07T18:46:45.136Z,4.27
2018-10-07T18:49:13.447Z,5.00
2018-10-07T18:51:41.690Z,5.20
2018-10-07T18:54:09.962Z,4.60
2018-10-07T18:56:38.191Z,3.80
2018-10-07T18:59:06.410Z,5.07
2018-10-07T19:01:34.692Z,4.77
2018-10-07T19:04:03.053Z,4.97
2018-10-07T19:06:31.364Z,5.03
2018-10-07T19:08:59.768Z,4.60
2018-10-07T19:11:28.090Z,4.90
2018-10-07T19:13:56.586Z,5.07
2018-10-07T19:16:24.922Z,4.53
2018-10-07T19:18:53.381Z,4.33
2018-10-07T19:21:22.030Z,5.03
2018-10-07T19:23:50.409Z,4.60
2018-10-07T19:26:18.728Z,5.17
2018-10-07T19:28:47.044Z,4.43
2018-10-07T19:31:15.259Z,4.87
2018-10-07T19:33:43.965Z,4.30
2018-10-07T19:36:12.303Z,4.97
2018-10-07T19:38:40.571Z,4.67
2018-10-07T19:41:09.077Z,4.07
2018-10-07T19:43:37.482Z,4.43
2018-10-07T19:46:05.969Z,4.20
2018-10-07T19:48:34.433Z,4.43
2018-10-07T19:51:02.850Z,4.83
2018-10-07T19:53:31.093Z,4.20
2018-10-07T19:55:59.422Z,5.03
2018-10-07T19:58:27.737Z,5.07
2018-10-07T20:00:56.370Z,5.80
2018-10-07T20:03:24.741Z,5.30
2018-10-07T20:05:53.043Z,5.50
2018-10-07T20:08:21.638Z,4.40
2018-10-07T20:10:50.175Z,5.63
2018-10-07T20:13:18.879Z,5.70
2018-10-07T20:15:47.458Z,4.60
2018-10-07T20:18:15.966Z,4.80
2018-10-07T20:20:44.314Z,5.50
2018-10-07T20:23:12.616Z,5.13
2018-10-07T20:25:41.228Z,5.63
2018-10-07T20:28:09.906Z,5.50
2018-10-07T20:30:38.225Z,4.87
2018-10-07T20:33:06.812Z,5.33
2018-10-07T20:35:35.325Z,5.80
2018-10-07T20:38:03.926Z,5.40
2018-10-07T20:40:32.659Z,5.57
2018-10-07T20:43:00.849Z,6.73
2018-10-07T20:45:29.167Z,5.57
2018-10-07T20:47:57.490Z,5.67
2018-10-07T20:50:25.719Z,5.33
2018-10-07T20:52:54.056Z,5.70
2018-10-07T20:55:22.336Z,5.53
2018-10-07T20:57:50.670Z,5.50
2018-10-07T21:00:18.892Z,5.80
2018-10-07T21:02:47.683Z,5.93
2018-10-07T21:05:15.916Z,6.30
2018-10-07T21:07:44.155Z,5.53
2018-10-07T21:10:12.369Z,5.90
2018-10-07T21:12:40.940Z,6.10
2018-10-07T21:15:09.089Z,6.37
2018-10-07T21:17:37.390Z,6.77
2018-10-07T21:20:05.680Z,6.07
2018-10-07T21:22:33.937Z,5.90
2018-10-07T21:25:02.114Z,6.10
2018-10-07T21:27:30.407Z,7.10
2018-10-07T21:29:58.664Z,6.40
2018-10-07T21:32:26.863Z,5.60
2018-10-07T21:34:55.049Z,6.27
2018-10-07T21:37:23.396Z,5.87
2018-10-07T21:39:51.593Z,7.00
2018-10-07T21:42:19.740Z,6.13
2018-10-07T21:44:48.045Z,6.80
2018-10-07T21:47:16.306Z,6.60
2018-10-07T21:49:44.481Z,7.33
2018-10-07T21:52:12.557Z,6.17
2018-10-07T21:54:40.784Z,7.30
2018-10-07T21:57:08.970Z,6.73
2018-10-07T21:59:37.140Z,6.17
2018-10-07T22:02:05.243Z,6.70
2018-10-07T22:04:33.754Z,6.50
2018-10-07T22:07:02.012Z,5.77
2018-10-07T22:09:30.108Z,6.23
2018-10-07T22:11:58.244Z,6.10
2018-10-07T22:14:26.426Z,6.40
2018-10-07T22:16:54.619Z,5.20
2018-10-07T22:19:22.813Z,6.23
2018-10-07T22:21:51.039Z,6.43
2018-10-07T22:24:19.190Z,5.90
2018-10-07T22:26:47.449Z,6.33
2018-10-07T22:29:15.559Z,6.90
2018-10-07T22:31:43.805Z,6.13
2018-10-07T22:34:12.006Z,6.10
2018-10-07T22:36:40.110Z,6.13
2018-10-07T22:39:08.908Z,6.00
2018-10-07T22:41:37.292Z,6.40
2018-10-07T22:44:05.472Z,5.83
2018-10-07T22:46:33.630Z,5.20
2018-10-07T22:49:01.752Z,6.07
2018-10-07T22:51:29.863Z,5.30
2018-10-07T22:53:57.954Z,5.47
2018-10-07T22:56:26.150Z,6.70
2018-10-07T22:58:54.404Z,6.50
2018-10-07T23:01:22.627Z,6.93
2018-10-07T23:03:50.753Z,6.30
2018-10-07T23:06:18.918Z,6.10
2018-10-07T23:08:47.115Z,6.40
2018-10-07T23:11:15.243Z,6.63
2018-10-07T23:13:43.352Z,6.50
2018-10-07T23:16:11.529Z,5.53
2018-10-07T23:18:40.397Z,6.10
2018-10-07T23:21:08.535Z,6.27
2018-10-07T23:23:36.960Z,6.63
2018-10-07T23:26:05.090Z,6.97
2018-10-07T23:28:33.212Z,6.27
2018-10-07T23:31:01.287Z,6.50
2018-10-07T23:33:29.443Z,6.57
2018-10-07T23:35:57.541Z,6.97
2018-10-07T23:38:25.731Z,6.13
2018-10-07T23:40:55.225Z,7.20
2018-10-07T23:43:23.334Z,7.17
2018-10-07T23:45:51.524Z,7.27
2018-10-07T23:48:19.590Z,8.77
2018-10-07T23:50:47.759Z,7.93
2018-10-07T23:53:15.980Z,7.87
2018-10-07T23:55:44.183Z,7.70
2018-10-07T23:58:12.641Z,7.90
